Terminal Aerodrome Forecast
Issued by NWS Atlanta, GA

Home | Current Version | Previous Version | Text Only | Print | Product List | Glossary On
Versions: 1 2 3 4 5 6 7 8 9 10 11 12 13 14 15 16
000
FTUS42 KFFC 292329
TAFCSG
TAF
KCSG 292329Z 3000/3024 21007KT P6SM SCT120
     FM300300 21007KT P6SM BKN050
     FM300500 26009KT P6SM VCSH BKN025 OVC080
     FM300700 32014G20KT P6SM OVC025
     FM301300 33012G17KT P6SM SCT035
     FM301600 34014G23KT P6SM SCT150=

USA.gov is the U.S. government's official web portal to all federal, state and local government web resources and services.